createdAt,value
2018-05-25T00:01:56.271Z,99.90
2018-05-25T00:04:25.432Z,99.90
2018-05-25T00:06:55.327Z,99.90
2018-05-25T00:09:24.512Z,99.90
2018-05-25T00:11:54.567Z,99.90
2018-05-25T00:14:23.783Z,99.90
2018-05-25T00:16:52.990Z,99.90
2018-05-25T00:19:22.092Z,99.90
2018-05-25T00:21:53.100Z,99.90
2018-05-25T00:24:24.432Z,99.90
2018-05-25T00:26:54.717Z,99.90
2018-05-25T00:29:23.884Z,99.90
2018-05-25T00:31:53.041Z,99.90
2018-05-25T00:34:22.470Z,99.90
2018-05-25T00:36:51.608Z,99.90
2018-05-25T00:39:21.097Z,99.90
2018-05-25T00:41:50.853Z,99.90
2018-05-25T00:44:22.269Z,99.90
2018-05-25T00:46:51.795Z,99.90
2018-05-25T00:49:20.879Z,99.90
2018-05-25T00:51:53.024Z,99.90
2018-05-25T00:54:22.246Z,99.90
2018-05-25T00:56:51.510Z,99.90
2018-05-25T00:59:20.610Z,99.90
2018-05-25T01:01:50.001Z,99.90
2018-05-25T01:04:20.360Z,99.90
2018-05-25T01:06:49.514Z,99.90
2018-05-25T01:09:18.674Z,99.90
2018-05-25T01:11:47.979Z,99.90
2018-05-25T01:14:17.794Z,99.90
2018-05-25T01:16:47.864Z,99.90
2018-05-25T01:19:23.217Z,99.90
2018-05-25T01:21:52.470Z,99.90
2018-05-25T01:24:21.597Z,99.90
2018-05-25T01:26:51.821Z,99.90
2018-05-25T01:29:23.524Z,99.90
2018-05-25T01:31:57.793Z,99.90
2018-05-25T01:34:51.875Z,99.90
2018-05-25T01:37:23.426Z,99.90
2018-05-25T01:39:55.376Z,99.90
2018-05-25T01:43:02.044Z,99.90
2018-05-25T01:45:33.386Z,99.90
2018-05-25T01:48:05.121Z,99.90
2018-05-25T01:50:34.349Z,99.90
2018-05-25T01:53:03.470Z,99.90
2018-05-25T01:55:36.512Z,99.90
2018-05-25T01:58:05.920Z,99.90
2018-05-25T02:00:35.892Z,99.90
2018-05-25T02:03:05.934Z,99.90
2018-05-25T02:05:35.277Z,99.90
2018-05-25T02:08:04.847Z,99.90
2018-05-25T02:10:34.115Z,99.90
2018-05-25T02:13:03.264Z,99.90
2018-05-25T02:15:34.202Z,99.90
2018-05-25T02:20:40.205Z,99.90
2018-05-25T02:23:10.052Z,99.90
2018-05-25T02:25:39.350Z,99.90
2018-05-25T02:28:08.535Z,99.90
2018-05-25T02:30:37.707Z,99.90
2018-05-25T02:33:06.853Z,99.90
2018-05-25T02:35:36.779Z,99.90
2018-05-25T02:38:06.084Z,99.90
2018-05-25T02:40:35.747Z,99.90
2018-05-25T02:43:05.735Z,99.90
2018-05-25T02:45:35.576Z,99.90
2018-05-25T02:48:04.877Z,99.90
2018-05-25T02:50:34.056Z,99.90
2018-05-25T02:53:03.200Z,99.90
2018-05-25T02:55:32.431Z,99.90
2018-05-25T02:58:02.534Z,99.90
2018-05-25T03:00:32.046Z,99.90
2018-05-25T03:03:02.047Z,99.90
2018-05-25T03:05:31.804Z,99.90
2018-05-25T03:08:01.675Z,99.90
2018-05-25T03:10:32.813Z,99.90
2018-05-25T03:13:02.336Z,99.90
2018-05-25T03:15:34.966Z,99.90
2018-05-25T03:18:09.491Z,99.90
2018-05-25T03:20:38.616Z,99.90
2018-05-25T03:23:10.771Z,99.90
2018-05-25T03:25:40.044Z,99.90
2018-05-25T03:28:09.191Z,99.90
2018-05-25T03:30:38.327Z,99.90
2018-05-25T03:33:07.726Z,99.90
2018-05-25T03:35:38.309Z,99.90
2018-05-25T03:38:07.795Z,99.90
2018-05-25T03:40:37.720Z,99.90
2018-05-25T03:43:07.558Z,99.90
2018-05-25T03:45:36.834Z,99.90
2018-05-25T03:48:06.373Z,99.90
2018-05-25T03:50:35.448Z,99.90
2018-05-25T03:53:06.259Z,99.90
2018-05-25T03:55:36.342Z,99.90
2018-05-25T03:58:05.536Z,99.90
2018-05-25T04:00:46.477Z,99.90
2018-05-25T04:03:15.838Z,99.90
2018-05-25T04:05:45.215Z,99.90
2018-05-25T04:08:14.292Z,99.90
2018-05-25T04:10:43.520Z,99.90
2018-05-25T04:13:13.083Z,99.90
2018-05-25T04:15:42.233Z,99.90
2018-05-25T04:18:12.210Z,99.90
2018-05-25T04:20:41.341Z,99.90
2018-05-25T04:23:11.219Z,99.90
2018-05-25T04:25:40.492Z,99.90
2018-05-25T04:28:10.047Z,99.90
2018-05-25T04:30:39.352Z,99.90
2018-05-25T04:33:08.561Z,99.90
2018-05-25T04:35:38.465Z,99.90
2018-05-25T04:38:10.104Z,99.90
2018-05-25T04:40:39.553Z,99.90
2018-05-25T04:43:08.850Z,99.90
2018-05-25T04:45:38.760Z,99.90
2018-05-25T04:48:08.949Z,99.90
2018-05-25T04:50:38.377Z,99.90
2018-05-25T04:53:07.645Z,99.90
2018-05-25T04:55:36.692Z,99.90
2018-05-25T04:58:06.631Z,99.90
2018-05-25T05:00:35.710Z,99.90
2018-05-25T05:03:05.574Z,99.90
2018-05-25T05:05:34.632Z,99.90
2018-05-25T05:08:04.532Z,99.90
2018-05-25T05:10:34.536Z,99.90
2018-05-25T05:13:05.408Z,99.90
2018-05-25T05:15:36.550Z,99.90
2018-05-25T05:18:06.616Z,99.90
2018-05-25T05:20:35.784Z,99.90
2018-05-25T05:23:05.014Z,99.90
2018-05-25T05:25:34.852Z,99.90
2018-05-25T05:28:05.373Z,99.90
2018-05-25T05:30:37.264Z,99.90
2018-05-25T05:33:07.250Z,99.90
2018-05-25T05:35:36.512Z,99.90
2018-05-25T05:38:05.702Z,99.90
2018-05-25T05:40:49.387Z,99.90
2018-05-25T05:43:18.733Z,99.90
2018-05-25T05:45:49.785Z,99.90
2018-05-25T05:48:19.093Z,99.90
2018-05-25T05:50:48.383Z,99.90
2018-05-25T05:53:17.888Z,99.90
2018-05-25T05:55:48.554Z,99.90
2018-05-25T05:58:17.715Z,99.90
2018-05-25T06:00:46.856Z,99.90
2018-05-25T06:03:16.065Z,99.90
2018-05-25T06:05:45.180Z,99.90
2018-05-25T06:08:14.333Z,99.90
2018-05-25T06:10:43.486Z,99.90
2018-05-25T06:13:12.706Z,99.90
2018-05-25T06:15:41.949Z,99.90
2018-05-25T06:18:12.612Z,99.90
2018-05-25T06:20:41.870Z,99.90
2018-05-25T06:23:11.007Z,99.90
2018-05-25T06:25:40.170Z,99.90
2018-05-25T06:28:09.285Z,99.90
2018-05-25T06:30:38.345Z,99.90
2018-05-25T06:33:07.468Z,99.90
2018-05-25T06:35:36.558Z,99.90
2018-05-25T06:38:05.724Z,99.90
2018-05-25T06:40:35.553Z,99.90
2018-05-25T06:43:04.619Z,99.90
2018-05-25T06:45:33.733Z,99.90
2018-05-25T06:48:02.941Z,99.90
2018-05-25T06:50:32.219Z,99.90
2018-05-25T06:53:02.072Z,99.90
2018-05-25T06:55:34.068Z,99.90
2018-05-25T06:58:04.070Z,99.90
2018-05-25T07:00:34.096Z,99.90
2018-05-25T07:03:03.199Z,99.90
2018-05-25T07:05:32.890Z,99.90
2018-05-25T07:08:02.019Z,99.90
2018-05-25T07:10:32.959Z,99.90
2018-05-25T07:13:02.090Z,99.90
2018-05-25T07:15:31.194Z,99.90
2018-05-25T07:18:00.840Z,99.90
2018-05-25T07:20:30.023Z,99.90
2018-05-25T07:22:59.135Z,99.90
2018-05-25T07:25:28.209Z,99.90
2018-05-25T07:27:57.281Z,99.90
2018-05-25T07:30:26.420Z,99.90
2018-05-25T07:32:55.569Z,99.90
2018-05-25T07:35:24.725Z,99.90
2018-05-25T07:37:54.393Z,99.90
2018-05-25T07:40:23.452Z,99.90
2018-05-25T07:42:53.572Z,99.90
2018-05-25T07:45:24.256Z,99.90
2018-05-25T07:47:53.938Z,99.90
2018-05-25T07:50:23.103Z,99.90
2018-05-25T07:52:52.994Z,99.90
2018-05-25T07:55:22.206Z,99.90
2018-05-25T07:57:51.317Z,99.90
2018-05-25T08:00:20.401Z,99.90
2018-05-25T08:02:49.472Z,99.90
2018-05-25T08:05:19.367Z,99.90
2018-05-25T08:07:48.438Z,99.90
2018-05-25T08:10:17.506Z,99.90
2018-05-25T08:12:46.598Z,99.90
2018-05-25T08:15:15.786Z,99.90
2018-05-25T08:17:44.900Z,99.90
2018-05-25T08:20:13.931Z,99.90
2018-05-25T08:22:43.037Z,99.90
2018-05-25T08:25:12.064Z,99.90
2018-05-25T08:27:41.144Z,99.90
2018-05-25T08:30:10.976Z,99.90
2018-05-25T08:32:41.243Z,99.90
2018-05-25T08:35:10.978Z,99.90
2018-05-25T08:37:41.053Z,99.90
2018-05-25T08:40:10.238Z,99.90
2018-05-25T08:42:39.261Z,99.90
2018-05-25T08:45:08.552Z,99.90
2018-05-25T08:47:37.609Z,99.90
2018-05-25T08:50:06.676Z,99.90
2018-05-25T08:52:35.706Z,99.90
2018-05-25T08:55:04.924Z,99.90
2018-05-25T08:57:33.987Z,99.90
2018-05-25T09:00:03.059Z,99.90
2018-05-25T09:02:32.870Z,99.90
2018-05-25T09:05:01.927Z,99.90
2018-05-25T09:07:31.000Z,99.90
2018-05-25T09:10:00.081Z,99.90
2018-05-25T09:12:29.381Z,99.90
2018-05-25T09:14:58.484Z,99.90
2018-05-25T09:17:28.814Z,99.90
2018-05-25T09:19:57.921Z,99.90
2018-05-25T09:22:27.103Z,99.90
2018-05-25T09:24:56.120Z,99.90
2018-05-25T09:27:25.385Z,99.90
2018-05-25T09:29:54.646Z,99.90
2018-05-25T09:32:24.477Z,99.90
2018-05-25T09:34:54.416Z,99.90
2018-05-25T09:37:23.543Z,99.90
2018-05-25T09:39:53.607Z,99.90
2018-05-25T09:42:23.443Z,99.90
2018-05-25T09:44:52.494Z,99.90
2018-05-25T09:47:22.546Z,99.90
2018-05-25T09:49:51.574Z,99.90
2018-05-25T09:52:20.612Z,99.90
2018-05-25T09:54:50.524Z,99.90
2018-05-25T09:57:20.360Z,99.90
2018-05-25T09:59:49.423Z,99.90
2018-05-25T10:02:19.745Z,99.90
2018-05-25T10:04:49.697Z,99.90
2018-05-25T10:07:18.887Z,99.90
2018-05-25T10:09:48.092Z,99.90
2018-05-25T10:12:17.252Z,99.90
2018-05-25T10:14:47.066Z,99.90
2018-05-25T10:17:16.924Z,99.90
2018-05-25T10:19:46.035Z,99.90
2018-05-25T10:22:15.195Z,99.90
2018-05-25T10:24:44.286Z,99.90
2018-05-25T10:27:13.360Z,99.90
2018-05-25T10:29:42.439Z,99.90
2018-05-25T10:32:12.340Z,99.90
2018-05-25T10:34:42.337Z,99.90
2018-05-25T10:37:11.404Z,99.90
2018-05-25T10:39:40.537Z,99.90
2018-05-25T10:42:09.604Z,99.90
2018-05-25T10:44:38.629Z,99.90
2018-05-25T10:47:07.861Z,99.90
2018-05-25T10:49:38.023Z,99.90
2018-05-25T10:52:07.089Z,99.90
2018-05-25T10:54:36.153Z,99.90
2018-05-25T10:57:05.316Z,99.90
2018-05-25T10:59:34.460Z,99.90
2018-05-25T11:02:04.256Z,99.90
2018-05-25T11:04:33.375Z,99.90
2018-05-25T11:07:03.208Z,99.90
2018-05-25T11:09:32.306Z,99.90
2018-05-25T11:12:01.387Z,99.90
2018-05-25T11:14:30.564Z,99.90
2018-05-25T11:17:00.454Z,99.90
2018-05-25T11:19:29.566Z,99.90
2018-05-25T11:21:59.482Z,99.90
2018-05-25T11:24:29.368Z,99.90
2018-05-25T11:26:58.517Z,99.90
2018-05-25T11:29:28.215Z,99.90
2018-05-25T11:31:57.442Z,99.90
2018-05-25T11:34:26.588Z,99.90
2018-05-25T11:36:56.439Z,99.90
2018-05-25T11:39:25.543Z,99.90
2018-05-25T11:41:54.614Z,99.90
2018-05-25T11:44:23.825Z,99.90
2018-05-25T11:46:52.882Z,99.90
2018-05-25T11:49:22.644Z,99.90
2018-05-25T11:51:52.166Z,99.90
2018-05-25T11:54:21.297Z,99.90
2018-05-25T11:56:51.132Z,99.90
2018-05-25T11:59:20.211Z,99.90
2018-05-25T12:01:49.468Z,99.90
2018-05-25T12:04:18.475Z,99.90
2018-05-25T12:06:47.726Z,99.90
2018-05-25T12:09:18.028Z,99.90
2018-05-25T12:11:47.296Z,99.90
2018-05-25T12:14:16.524Z,99.90
2018-05-25T12:16:47.418Z,99.90
2018-05-25T12:19:16.998Z,99.90
2018-05-25T12:21:46.403Z,99.90
2018-05-25T12:24:15.541Z,99.90
2018-05-25T12:26:47.573Z,99.90
2018-05-25T12:29:17.754Z,99.90
2018-05-25T12:31:46.832Z,99.90
2018-05-25T12:34:16.097Z,99.90
2018-05-25T12:36:46.044Z,99.90
2018-05-25T12:39:15.248Z,99.90
2018-05-25T12:41:45.525Z,99.90
2018-05-25T12:44:15.196Z,99.90
2018-05-25T12:46:44.428Z,99.90
2018-05-25T12:49:14.385Z,99.90
2018-05-25T12:51:43.999Z,99.90
2018-05-25T12:56:48.650Z,99.90
2018-05-25T12:59:20.199Z,99.90
2018-05-25T13:01:49.521Z,99.90
2018-05-25T13:04:18.807Z,99.90
2018-05-25T13:06:48.038Z,99.90
2018-05-25T13:09:19.988Z,99.90
2018-05-25T13:11:51.188Z,99.90
2018-05-25T13:14:21.956Z,99.90
2018-05-25T13:17:04.026Z,99.90
2018-05-25T13:22:27.546Z,99.90
2018-05-25T13:27:35.461Z,99.90
2018-05-25T13:30:08.493Z,99.90
2018-05-25T13:32:38.229Z,99.90
2018-05-25T13:35:07.566Z,99.90
2018-05-25T13:37:41.009Z,99.90
2018-05-25T13:40:10.356Z,99.90
2018-05-25T13:42:43.140Z,99.90
2018-05-25T13:45:13.636Z,99.90
2018-05-25T13:47:43.027Z,99.90
2018-05-25T13:50:15.146Z,99.90
2018-05-25T13:52:44.485Z,99.90
2018-05-25T13:55:15.226Z,99.90
2018-05-25T13:57:44.470Z,99.90
2018-05-25T14:00:14.306Z,99.90
2018-05-25T14:02:44.101Z,99.90
2018-05-25T14:05:14.102Z,99.90
2018-05-25T14:07:43.253Z,99.90
2018-05-25T14:10:12.508Z,99.90
2018-05-25T14:12:42.751Z,99.90
2018-05-25T14:15:12.682Z,99.90
2018-05-25T14:17:41.841Z,99.90
2018-05-25T14:20:11.885Z,99.90
2018-05-25T14:22:41.111Z,99.90
2018-05-25T14:25:11.091Z,99.90
2018-05-25T14:27:40.289Z,99.90
2018-05-25T14:30:09.674Z,99.90
2018-05-25T14:32:38.777Z,99.90
2018-05-25T14:35:08.040Z,99.90
2018-05-25T14:37:37.259Z,99.90
2018-05-25T14:40:07.153Z,99.90
2018-05-25T14:42:36.237Z,99.90
2018-05-25T14:45:06.137Z,99.90
2018-05-25T14:47:35.990Z,99.90
2018-05-25T14:50:05.145Z,99.90
2018-05-25T14:52:36.202Z,99.90
2018-05-25T14:55:05.522Z,99.90
2018-05-25T14:57:35.225Z,98.80
2018-05-25T15:00:04.427Z,98.10
2018-05-25T15:02:33.617Z,96.90
2018-05-25T15:05:03.924Z,96.90
2018-05-25T15:07:33.021Z,95.90
2018-05-25T15:10:03.021Z,94.10
2018-05-25T15:12:33.182Z,94.80
2018-05-25T15:15:04.844Z,96.60
2018-05-25T15:17:34.468Z,96.60
2018-05-25T15:20:04.334Z,97.40
2018-05-25T15:22:36.326Z,95.70
2018-05-25T15:25:05.698Z,96.20
2018-05-25T15:27:34.925Z,98.50
2018-05-25T15:30:04.193Z,99.90
2018-05-25T15:32:33.603Z,98.90
2018-05-25T15:35:06.831Z,98.40
2018-05-25T15:37:36.949Z,97.70
2018-05-25T15:40:07.063Z,96.60
2018-05-25T15:42:36.201Z,97.00
2018-05-25T15:45:05.661Z,99.00
2018-05-25T15:47:35.981Z,98.80
2018-05-25T15:50:05.782Z,96.60
2018-05-25T15:52:34.942Z,94.50
2018-05-25T15:55:04.782Z,90.70
2018-05-25T15:57:35.442Z,85.00
2018-05-25T16:00:05.244Z,84.90
2018-05-25T16:02:35.927Z,83.40
2018-05-25T16:05:06.121Z,84.80
2018-05-25T16:07:36.320Z,79.00
2018-05-25T16:10:09.215Z,75.00
2018-05-25T16:12:43.429Z,72.70
2018-05-25T16:15:13.525Z,70.60
2018-05-25T16:17:42.973Z,70.60
2018-05-25T16:20:13.358Z,73.80
2018-05-25T16:22:43.354Z,73.80
2018-05-25T16:25:16.704Z,68.10
2018-05-25T16:27:48.780Z,65.50
2018-05-25T16:30:20.749Z,65.50
2018-05-25T16:32:50.009Z,66.30
2018-05-25T16:35:20.919Z,67.50
2018-05-25T16:37:54.185Z,63.60
2018-05-25T16:40:23.918Z,64.20
2018-05-25T16:42:53.698Z,65.90
2018-05-25T16:45:23.138Z,62.20
2018-05-25T16:47:53.878Z,64.40
2018-05-25T16:50:23.472Z,59.00
2018-05-25T16:52:54.022Z,58.50
2018-05-25T16:55:26.295Z,58.70
2018-05-25T16:57:56.427Z,60.70
2018-05-25T17:00:26.820Z,60.70
2018-05-25T17:02:56.973Z,60.00
2018-05-25T17:08:04.270Z,59.70
2018-05-25T17:13:07.086Z,59.10
2018-05-25T17:15:37.150Z,58.20
2018-05-25T17:18:06.459Z,58.10
2018-05-25T17:20:36.433Z,58.20
2018-05-25T17:23:05.672Z,58.10
2018-05-25T17:25:35.646Z,57.60
2018-05-25T17:28:04.832Z,57.60
2018-05-25T17:30:36.201Z,58.80
2018-05-25T17:33:05.674Z,56.30
2018-05-25T17:38:14.756Z,52.50
2018-05-25T17:40:44.105Z,52.50
2018-05-25T17:43:14.173Z,53.10
2018-05-25T17:45:44.127Z,53.00
2018-05-25T17:48:13.633Z,52.40
2018-05-25T17:50:42.897Z,53.80
2018-05-25T17:53:12.050Z,53.10
2018-05-25T17:55:41.369Z,52.50
2018-05-25T17:58:17.551Z,52.30
2018-05-25T18:00:46.731Z,53.90
2018-05-25T18:03:18.591Z,52.00
2018-05-25T18:05:48.340Z,51.40
2018-05-25T18:08:17.506Z,50.10
2018-05-25T18:10:46.646Z,50.30
2018-05-25T18:13:16.355Z,48.10
2018-05-25T18:15:47.725Z,50.50
2018-05-25T18:18:17.676Z,48.30
2018-05-25T18:20:48.063Z,48.40
2018-05-25T18:23:17.196Z,49.20
2018-05-25T18:25:48.636Z,48.00
2018-05-25T18:28:17.804Z,48.70
2018-05-25T18:30:49.030Z,47.10
2018-05-25T18:33:19.202Z,49.00
2018-05-25T18:35:48.576Z,49.00
2018-05-25T18:38:21.886Z,48.90
2018-05-25T18:40:53.089Z,48.00
2018-05-25T18:43:23.446Z,47.30
2018-05-25T18:45:52.637Z,47.20
2018-05-25T18:48:21.698Z,47.00
2018-05-25T18:50:51.931Z,48.60
2018-05-25T18:53:21.068Z,48.60
2018-05-25T18:55:50.169Z,46.70
2018-05-25T18:58:30.534Z,46.20
2018-05-25T19:00:59.715Z,48.20
2018-05-25T19:03:29.725Z,48.00
2018-05-25T19:05:58.892Z,46.70
2018-05-25T19:08:28.187Z,44.00
2018-05-25T19:10:59.946Z,45.60
2018-05-25T19:13:32.920Z,45.60
2018-05-25T19:16:02.391Z,45.60
2018-05-25T19:18:31.685Z,42.40
2018-05-25T19:21:03.466Z,43.90
2018-05-25T19:23:33.373Z,44.70
2018-05-25T19:26:03.303Z,45.20
2018-05-25T19:28:34.182Z,45.40
2018-05-25T19:31:03.527Z,45.30
2018-05-25T19:33:33.409Z,46.40
2018-05-25T19:36:02.481Z,46.40
2018-05-25T19:38:32.182Z,46.70
2018-05-25T19:41:01.393Z,46.30
2018-05-25T19:43:31.615Z,45.80
2018-05-25T19:46:00.880Z,44.30
2018-05-25T19:48:29.999Z,46.50
2018-05-25T19:51:00.083Z,47.20
2018-05-25T19:53:29.269Z,45.70
2018-05-25T19:55:59.185Z,45.40
2018-05-25T19:58:30.134Z,48.10
2018-05-25T20:01:00.932Z,47.40
2018-05-25T20:03:31.496Z,47.30
2018-05-25T20:06:00.900Z,48.40
2018-05-25T20:08:37.744Z,48.70
2018-05-25T20:11:07.170Z,49.20
2018-05-25T20:13:37.155Z,50.00
2018-05-25T20:16:06.335Z,50.00
2018-05-25T20:18:37.407Z,50.70
2018-05-25T20:21:08.149Z,51.00
2018-05-25T20:23:37.216Z,50.90
2018-05-25T20:26:08.396Z,51.50
2018-05-25T20:28:39.997Z,52.30
2018-05-25T20:31:09.236Z,51.00
2018-05-25T20:33:38.436Z,49.90
2018-05-25T20:36:07.873Z,50.30
2018-05-25T20:38:37.673Z,50.40
2018-05-25T20:41:12.127Z,49.00
2018-05-25T20:43:43.957Z,50.50
2018-05-25T20:46:15.354Z,51.10
2018-05-25T20:48:44.576Z,51.10
2018-05-25T20:51:14.370Z,53.50
2018-05-25T20:53:44.579Z,57.30
2018-05-25T20:56:13.952Z,57.30
2018-05-25T20:58:47.579Z,57.20
2018-05-25T21:01:18.678Z,58.70
2018-05-25T21:03:53.945Z,59.50
2018-05-25T21:06:24.350Z,60.80
2018-05-25T21:08:54.512Z,60.80
2018-05-25T21:11:27.633Z,62.50
2018-05-25T21:13:56.863Z,61.50
2018-05-25T21:16:28.201Z,64.10
2018-05-25T21:19:02.684Z,64.40
2018-05-25T21:21:32.780Z,65.80
2018-05-25T21:24:02.488Z,66.20
2018-05-25T21:26:34.374Z,67.90
2018-05-25T21:29:04.978Z,67.90
2018-05-25T21:31:35.685Z,67.70
2018-05-25T21:34:08.031Z,68.20
2018-05-25T21:36:42.889Z,69.20
2018-05-25T21:39:13.332Z,70.10
2018-05-25T21:41:53.847Z,70.40
2018-05-25T21:44:32.048Z,71.10
2018-05-25T21:47:02.632Z,77.90
2018-05-25T21:49:31.844Z,78.00
2018-05-25T21:52:02.531Z,78.40
2018-05-25T21:54:34.010Z,92.50
2018-05-25T21:57:08.487Z,94.50
2018-05-25T21:59:38.453Z,94.50
2018-05-25T22:02:08.455Z,98.60
2018-05-25T22:04:38.114Z,98.60
2018-05-25T22:07:07.965Z,99.90
2018-05-25T22:09:37.174Z,99.90
2018-05-25T22:12:07.104Z,99.90
2018-05-25T22:14:36.309Z,99.90
2018-05-25T22:17:05.489Z,99.90
2018-05-25T22:19:34.604Z,99.90
2018-05-25T22:22:03.736Z,99.90
2018-05-25T22:24:34.759Z,99.90
2018-05-25T22:27:04.500Z,99.90
2018-05-25T22:29:33.902Z,99.90
2018-05-25T22:32:03.860Z,99.90
2018-05-25T22:34:32.989Z,99.90
2018-05-25T22:37:02.233Z,99.90
2018-05-25T22:39:32.788Z,99.90
2018-05-25T22:42:01.110Z,99.90
2018-05-25T22:44:41.692Z,99.90
2018-05-25T22:47:22.208Z,99.90
2018-05-25T22:50:02.695Z,99.90
2018-05-25T22:52:37.222Z,99.90
2018-05-25T22:55:13.816Z,99.90
2018-05-25T22:57:43.044Z,99.90
2018-05-25T23:00:14.735Z,99.90
2018-05-25T23:02:44.769Z,99.90
2018-05-25T23:05:14.011Z,99.90
2018-05-25T23:07:44.005Z,99.90
2018-05-25T23:10:13.123Z,99.90
2018-05-25T23:12:43.022Z,99.90
2018-05-25T23:15:12.778Z,99.90
2018-05-25T23:17:41.822Z,99.90
2018-05-25T23:20:10.957Z,99.90
2018-05-25T23:22:40.115Z,99.90
2018-05-25T23:25:10.050Z,99.90
2018-05-25T23:27:39.255Z,99.90
2018-05-25T23:30:08.462Z,99.90
2018-05-25T23:32:42.780Z,99.90
2018-05-25T23:35:12.383Z,99.90
2018-05-25T23:37:41.588Z,99.90
2018-05-25T23:40:12.081Z,99.90
2018-05-25T23:42:41.247Z,99.90
2018-05-25T23:45:10.668Z,99.90
2018-05-25T23:47:40.029Z,99.90
2018-05-25T23:50:10.113Z,99.90
2018-05-25T23:52:39.347Z,99.90
2018-05-25T23:55:20.373Z,99.90
2018-05-25T23:58:00.048Z,99.90
